Terminal Aerodrome Forecast
Issued by NWS

Home | Current Version | Previous Version | Text Only | Print | Product List | Glossary On
Versions: 1 2 3 4 5 6 7 8 9 10 11 12 13 14 15 16 17 18 19 20 21 22 23 24 25 26 27 28 29 30 31
000
FTAK31 PANC 011142
TAFADU
TAF
PADU 011142Z 0112/0212 17009KT P6SM -RA BKN015 OVC045
      TEMPO 0112/0114 SCT015 BKN045
     FM011800 14018G25KT 3SM RA BR BKN015 OVC025
     FM020100 17012G20KT 5SM -RA BR BKN025
     FM020700 15008KT 5SM -RA BR OVC015=

USA.gov is the U.S. government's official web portal to all federal, state and local government web resources and services.